sensor_id;sensor_type;location;lat;lon;timestamp;pressure;altitude;pressure_sealevel;temperature;humidity
43621;BME280;29213;50.770;7.298;2022-12-29T00:02:03;99664.97;;;7.60;62.58
43621;BME280;29213;50.770;7.298;2022-12-29T00:04:28;99811.88;;;8.57;62.63
43621;BME280;29213;50.770;7.298;2022-12-29T00:06:54;99777.72;;;8.37;63.06
43621;BME280;29213;50.770;7.298;2022-12-29T00:09:19;99755.06;;;8.26;62.79
43621;BME280;29213;50.770;7.298;2022-12-29T00:11:45;99748.06;;;8.34;62.94
43621;BME280;29213;50.770;7.298;2022-12-29T00:14:11;99801.53;;;8.70;63.04
43621;BME280;29213;50.770;7.298;2022-12-29T00:16:56;99725.34;;;8.31;62.66
43621;BME280;29213;50.770;7.298;2022-12-29T00:19:22;99785.91;;;8.76;62.77
43621;BME280;29213;50.770;7.298;2022-12-29T00:22:05;99745.25;;;8.43;62.62
43621;BME280;29213;50.770;7.298;2022-12-29T00:24:50;99704.13;;;8.39;62.66
43621;BME280;29213;50.770;7.298;2022-12-29T00:27:31;99775.13;;;8.86;62.09
43621;BME280;29213;50.770;7.298;2022-12-29T00:30:23;99754.44;;;8.73;62.21
43621;BME280;29213;50.770;7.298;2022-12-29T00:35:55;99780.22;;;8.87;62.48
43621;BME280;29213;50.770;7.298;2022-12-29T00:38:22;99738.19;;;8.59;62.66
43621;BME280;29213;50.770;7.298;2022-12-29T00:41:06;99758.41;;;8.77;62.36
43621;BME280;29213;50.770;7.298;2022-12-29T00:43:51;99651.13;;;8.23;62.13
43621;BME280;29213;50.770;7.298;2022-12-29T00:46:37;99767.75;;;8.96;62.38
43621;BME280;29213;50.770;7.298;2022-12-29T00:49:05;99705.88;;;8.55;62.49
43621;BME280;29213;50.770;7.298;2022-12-29T00:51:50;99765.00;;;8.81;62.97
43621;BME280;29213;50.770;7.298;2022-12-29T00:54:16;99698.06;;;8.54;63.12
43621;BME280;29213;50.770;7.298;2022-12-29T00:56:41;99687.88;;;8.34;62.89
43621;BME280;29213;50.770;7.298;2022-12-29T00:59:09;99740.63;;;8.77;62.93
43621;BME280;29213;50.770;7.298;2022-12-29T01:01:36;99756.03;;;8.82;63.22
43621;BME280;29213;50.770;7.298;2022-12-29T01:04:03;99764.97;;;8.89;62.76
43621;BME280;29213;50.770;7.298;2022-12-29T01:06:29;99738.03;;;8.69;62.70
43621;BME280;29213;50.770;7.298;2022-12-29T01:08:54;99744.69;;;8.56;62.89
43621;BME280;29213;50.770;7.298;2022-12-29T01:11:39;99777.41;;;8.89;62.53
43621;BME280;29213;50.770;7.298;2022-12-29T01:14:05;99741.00;;;8.74;62.66
43621;BME280;29213;50.770;7.298;2022-12-29T01:16:31;99772.78;;;8.82;62.67
43621;BME280;29213;50.770;7.298;2022-12-29T01:18:56;99705.19;;;8.62;62.54
43621;BME280;29213;50.770;7.298;2022-12-29T01:21:22;99771.41;;;8.95;62.55
43621;BME280;29213;50.770;7.298;2022-12-29T01:23:47;99699.13;;;8.45;62.70
43621;BME280;29213;50.770;7.298;2022-12-29T01:26:14;99753.38;;;8.82;62.75
43621;BME280;29213;50.770;7.298;2022-12-29T01:28:40;99768.69;;;8.72;62.62
43621;BME280;29213;50.770;7.298;2022-12-29T01:31:11;99768.34;;;8.75;62.49
43621;BME280;29213;50.770;7.298;2022-12-29T01:33:36;99765.03;;;8.73;63.07
43621;BME280;29213;50.770;7.298;2022-12-29T01:36:03;99767.22;;;8.69;62.57
43621;BME280;29213;50.770;7.298;2022-12-29T01:38:29;99657.78;;;8.02;62.62
43621;BME280;29213;50.770;7.298;2022-12-29T01:40:55;99666.38;;;8.21;62.09
43621;BME280;29213;50.770;7.298;2022-12-29T01:43:20;99682.22;;;8.37;61.59
43621;BME280;29213;50.770;7.298;2022-12-29T01:45:50;99726.22;;;8.72;61.59
43621;BME280;29213;50.770;7.298;2022-12-29T01:48:18;99658.72;;;8.26;61.14
43621;BME280;29213;50.770;7.298;2022-12-29T01:50:50;99688.81;;;8.50;61.08
43621;BME280;29213;50.770;7.298;2022-12-29T01:53:25;99707.28;;;8.75;60.50
43621;BME280;29213;50.770;7.298;2022-12-29T01:56:01;99710.31;;;8.72;60.80
43621;BME280;29213;50.770;7.298;2022-12-29T01:58:32;99754.75;;;9.09;59.94
43621;BME280;29213;50.770;7.298;2022-12-29T02:00:59;99717.03;;;8.82;59.73
43621;BME280;29213;50.770;7.298;2022-12-29T02:03:25;99712.19;;;8.86;59.57
43621;BME280;29213;50.770;7.298;2022-12-29T02:05:56;99757.84;;;9.21;59.68
43621;BME280;29213;50.770;7.298;2022-12-29T02:08:26;99689.84;;;8.80;59.25
43621;BME280;29213;50.770;7.298;2022-12-29T02:10:52;99698.53;;;8.98;59.24
43621;BME280;29213;50.770;7.298;2022-12-29T02:13:18;99724.38;;;9.04;58.89
43621;BME280;29213;50.770;7.298;2022-12-29T02:18:52;99685.78;;;8.93;58.91
43621;BME280;29213;50.770;7.298;2022-12-29T02:29:30;99706.25;;;9.39;58.79
43621;BME280;29213;50.770;7.298;2022-12-29T02:43:44;99701.34;;;9.28;59.63
43621;BME280;29213;50.770;7.298;2022-12-29T02:46:36;99695.34;;;9.26;59.53
43621;BME280;29213;50.770;7.298;2022-12-29T02:49:10;99695.34;;;9.26;59.74
43621;BME280;29213;50.770;7.298;2022-12-29T02:54:17;99704.03;;;9.19;60.27
43621;BME280;29213;50.770;7.298;2022-12-29T02:57:02;99690.41;;;9.22;60.52
43621;BME280;29213;50.770;7.298;2022-12-29T02:59:28;99691.81;;;9.33;60.42
43621;BME280;29213;50.770;7.298;2022-12-29T03:02:11;99678.38;;;9.35;60.43
43621;BME280;29213;50.770;7.298;2022-12-29T03:10:30;99692.06;;;9.23;60.76
43621;BME280;29213;50.770;7.298;2022-12-29T03:13:18;99687.22;;;9.27;60.91
43621;BME280;29213;50.770;7.298;2022-12-29T03:16:24;99681.97;;;9.19;61.30
43621;BME280;29213;50.770;7.298;2022-12-29T03:19:04;99666.09;;;9.10;61.90
43621;BME280;29213;50.770;7.298;2022-12-29T03:21:36;99666.91;;;9.11;61.76
43621;BME280;29213;50.770;7.298;2022-12-29T03:24:35;99672.22;;;9.11;61.88
43621;BME280;29213;50.770;7.298;2022-12-29T03:27:04;99660.22;;;9.15;61.70
43621;BME280;29213;50.770;7.298;2022-12-29T03:29:39;99664.78;;;9.06;61.81
43621;BME280;29213;50.770;7.298;2022-12-29T03:32:07;99664.00;;;8.98;62.34
43621;BME280;29213;50.770;7.298;2022-12-29T03:34:35;99669.03;;;9.16;61.92
43621;BME280;29213;50.770;7.298;2022-12-29T03:37:18;99675.56;;;9.28;61.36
43621;BME280;29213;50.770;7.298;2022-12-29T03:39:46;99664.66;;;9.23;61.66
43621;BME280;29213;50.770;7.298;2022-12-29T03:42:19;99669.34;;;9.21;61.66
43621;BME280;29213;50.770;7.298;2022-12-29T03:44:47;99667.84;;;9.18;61.99
43621;BME280;29213;50.770;7.298;2022-12-29T03:47:14;99624.06;;;8.91;61.65
43621;BME280;29213;50.770;7.298;2022-12-29T03:49:41;99667.69;;;9.20;61.75
43621;BME280;29213;50.770;7.298;2022-12-29T03:52:06;99594.31;;;8.72;61.80
43621;BME280;29213;50.770;7.298;2022-12-29T03:54:32;99568.84;;;8.63;62.01
43621;BME280;29213;50.770;7.298;2022-12-29T03:56:57;99653.56;;;9.19;61.97
43621;BME280;29213;50.770;7.298;2022-12-29T03:59:23;99659.34;;;9.23;61.86
43621;BME280;29213;50.770;7.298;2022-12-29T04:01:48;99656.06;;;9.21;61.44
43621;BME280;29213;50.770;7.298;2022-12-29T04:04:14;99606.97;;;8.93;61.40
43621;BME280;29213;50.770;7.298;2022-12-29T04:06:39;99635.03;;;9.11;61.68
43621;BME280;29213;50.770;7.298;2022-12-29T04:09:05;99656.88;;;9.21;61.66
43621;BME280;29213;50.770;7.298;2022-12-29T04:11:31;99602.28;;;8.95;61.27
43621;BME280;29213;50.770;7.298;2022-12-29T04:13:56;99599.88;;;8.86;61.42
43621;BME280;29213;50.770;7.298;2022-12-29T04:16:22;99532.59;;;8.47;61.05
43621;BME280;29213;50.770;7.298;2022-12-29T04:18:47;99561.50;;;8.65;61.27
43621;BME280;29213;50.770;7.298;2022-12-29T04:21:13;99554.06;;;8.37;61.42
43621;BME280;29213;50.770;7.298;2022-12-29T04:23:39;99668.41;;;9.14;61.58
43621;BME280;29213;50.770;7.298;2022-12-29T04:26:05;99658.47;;;9.07;61.71
43621;BME280;29213;50.770;7.298;2022-12-29T04:28:35;99557.63;;;8.52;61.76
43621;BME280;29213;50.770;7.298;2022-12-29T04:31:00;99646.31;;;9.13;61.76
43621;BME280;29213;50.770;7.298;2022-12-29T04:33:26;99609.94;;;8.90;61.61
43621;BME280;29213;50.770;7.298;2022-12-29T04:35:51;99637.63;;;9.19;61.52
43621;BME280;29213;50.770;7.298;2022-12-29T04:38:21;99643.53;;;9.30;61.46
43621;BME280;29213;50.770;7.298;2022-12-29T04:40:47;99619.81;;;9.05;61.20
43621;BME280;29213;50.770;7.298;2022-12-29T04:43:13;99546.94;;;8.61;60.86
43621;BME280;29213;50.770;7.298;2022-12-29T04:45:43;99557.16;;;8.49;61.47
43621;BME280;29213;50.770;7.298;2022-12-29T04:48:08;99563.41;;;8.56;61.48
43621;BME280;29213;50.770;7.298;2022-12-29T04:50:34;99616.03;;;8.99;61.46
43621;BME280;29213;50.770;7.298;2022-12-29T04:52:59;99574.53;;;8.75;61.35
43621;BME280;29213;50.770;7.298;2022-12-29T04:55:25;99615.97;;;9.07;61.23
43621;BME280;29213;50.770;7.298;2022-12-29T04:57:50;99547.31;;;8.58;61.09
43621;BME280;29213;50.770;7.298;2022-12-29T05:00:16;99582.50;;;8.75;60.83
43621;BME280;29213;50.770;7.298;2022-12-29T05:02:41;99637.91;;;9.01;61.14
43621;BME280;29213;50.770;7.298;2022-12-29T05:05:07;99616.31;;;8.81;60.59
43621;BME280;29213;50.770;7.298;2022-12-29T05:07:32;99603.44;;;8.69;60.70
43621;BME280;29213;50.770;7.298;2022-12-29T05:09:58;99636.81;;;8.95;60.88
43621;BME280;29213;50.770;7.298;2022-12-29T05:12:24;99642.22;;;8.79;60.84
43621;BME280;29213;50.770;7.298;2022-12-29T05:14:49;99618.06;;;8.65;61.18
43621;BME280;29213;50.770;7.298;2022-12-29T05:17:15;99616.69;;;8.46;61.50
43621;BME280;29213;50.770;7.298;2022-12-29T05:19:40;99648.53;;;8.78;61.59
43621;BME280;29213;50.770;7.298;2022-12-29T05:22:06;99600.59;;;8.48;62.02
43621;BME280;29213;50.770;7.298;2022-12-29T05:24:31;99614.06;;;8.46;62.78
43621;BME280;29213;50.770;7.298;2022-12-29T05:26:57;99628.25;;;8.53;62.92
43621;BME280;29213;50.770;7.298;2022-12-29T05:29:22;99637.31;;;8.67;63.71
43621;BME280;29213;50.770;7.298;2022-12-29T05:31:47;99598.06;;;8.23;63.92
43621;BME280;29213;50.770;7.298;2022-12-29T05:34:13;99632.56;;;8.54;64.18
43621;BME280;29213;50.770;7.298;2022-12-29T05:36:39;99649.75;;;8.67;64.32
43621;BME280;29213;50.770;7.298;2022-12-29T05:39:04;99594.84;;;8.36;64.46
43621;BME280;29213;50.770;7.298;2022-12-29T05:41:30;99596.03;;;8.33;64.46
43621;BME280;29213;50.770;7.298;2022-12-29T05:43:55;99419.38;;;7.12;64.34
43621;BME280;29213;50.770;7.298;2022-12-29T05:46:21;99641.38;;;8.47;64.80
43621;BME280;29213;50.770;7.298;2022-12-29T05:48:46;99623.91;;;8.29;65.17
43621;BME280;29213;50.770;7.298;2022-12-29T05:51:12;99633.09;;;8.50;64.67
43621;BME280;29213;50.770;7.298;2022-12-29T05:53:37;99619.94;;;8.56;64.22
43621;BME280;29213;50.770;7.298;2022-12-29T05:56:03;99609.31;;;8.56;63.93
43621;BME280;29213;50.770;7.298;2022-12-29T05:58:28;99630.75;;;8.78;63.71
43621;BME280;29213;50.770;7.298;2022-12-29T06:00:53;99598.41;;;8.51;64.61
43621;BME280;29213;50.770;7.298;2022-12-29T06:03:19;99657.34;;;9.02;64.35
43621;BME280;29213;50.770;7.298;2022-12-29T06:05:47;99680.72;;;9.30;63.58
43621;BME280;29213;50.770;7.298;2022-12-29T06:08:13;99682.63;;;9.44;63.47
43621;BME280;29213;50.770;7.298;2022-12-29T06:10:38;99654.03;;;9.23;63.86
43621;BME280;29213;50.770;7.298;2022-12-29T06:13:04;99615.19;;;8.99;63.35
43621;BME280;29213;50.770;7.298;2022-12-29T06:15:34;99612.91;;;8.95;63.91
43621;BME280;29213;50.770;7.298;2022-12-29T06:18:00;99611.78;;;8.90;64.15
43621;BME280;29213;50.770;7.298;2022-12-29T06:20:25;99656.34;;;9.26;63.58
43621;BME280;29213;50.770;7.298;2022-12-29T06:22:51;99671.31;;;9.42;63.22
43621;BME280;29213;50.770;7.298;2022-12-29T06:25:16;99685.50;;;9.58;63.22
43621;BME280;29213;50.770;7.298;2022-12-29T06:27:42;99604.09;;;9.18;62.67
43621;BME280;29213;50.770;7.298;2022-12-29T06:30:08;99690.19;;;9.56;63.27
43621;BME280;29213;50.770;7.298;2022-12-29T06:32:34;99645.19;;;9.31;62.97
43621;BME280;29213;50.770;7.298;2022-12-29T06:35:00;99691.75;;;9.65;62.80
43621;BME280;29213;50.770;7.298;2022-12-29T06:37:26;99689.59;;;9.45;63.57
43621;BME280;29213;50.770;7.298;2022-12-29T06:39:51;99674.28;;;9.24;64.04
43621;BME280;29213;50.770;7.298;2022-12-29T06:42:16;99669.47;;;9.28;65.16
43621;BME280;29213;50.770;7.298;2022-12-29T06:44:42;99595.66;;;8.91;65.43
43621;BME280;29213;50.770;7.298;2022-12-29T06:47:07;99700.09;;;9.39;66.10
43621;BME280;29213;50.770;7.298;2022-12-29T06:49:33;99641.75;;;8.99;66.52
43621;BME280;29213;50.770;7.298;2022-12-29T06:51:58;99649.44;;;8.93;67.30
43621;BME280;29213;50.770;7.298;2022-12-29T06:54:26;99623.13;;;8.52;68.83
43621;BME280;29213;50.770;7.298;2022-12-29T06:56:51;99689.91;;;8.95;68.42
43621;BME280;29213;50.770;7.298;2022-12-29T06:59:17;99638.03;;;8.53;68.81
43621;BME280;29213;50.770;7.298;2022-12-29T07:01:43;99619.75;;;8.35;68.23
43621;BME280;29213;50.770;7.298;2022-12-29T07:04:08;99675.88;;;8.55;68.66
43621;BME280;29213;50.770;7.298;2022-12-29T07:06:34;99734.84;;;8.65;69.02
43621;BME280;29213;50.770;7.298;2022-12-29T07:08:59;99749.31;;;8.63;69.37
43621;BME280;29213;50.770;7.298;2022-12-29T07:11:24;99651.81;;;8.08;70.07
43621;BME280;29213;50.770;7.298;2022-12-29T07:13:50;99720.47;;;8.60;69.93
43621;BME280;29213;50.770;7.298;2022-12-29T07:16:16;99697.09;;;8.55;69.46
43621;BME280;29213;50.770;7.298;2022-12-29T07:18:41;99675.34;;;8.60;69.20
43621;BME280;29213;50.770;7.298;2022-12-29T07:21:07;99693.59;;;8.63;69.65
43621;BME280;29213;50.770;7.298;2022-12-29T07:23:32;99633.28;;;8.40;68.85
43621;BME280;29213;50.770;7.298;2022-12-29T07:26:02;99601.97;;;8.35;68.61
43621;BME280;29213;50.770;7.298;2022-12-29T07:28:28;99638.97;;;8.37;68.69
43621;BME280;29213;50.770;7.298;2022-12-29T07:30:54;99665.59;;;8.52;68.75
43621;BME280;29213;50.770;7.298;2022-12-29T07:33:19;99700.34;;;8.65;68.62
43621;BME280;29213;50.770;7.298;2022-12-29T07:35:45;99697.97;;;8.79;68.12
43621;BME280;29213;50.770;7.298;2022-12-29T07:38:10;99721.72;;;8.80;68.42
43621;BME280;29213;50.770;7.298;2022-12-29T07:40:36;99713.28;;;8.68;68.21
43621;BME280;29213;50.770;7.298;2022-12-29T07:43:01;99724.16;;;8.82;67.83
43621;BME280;29213;50.770;7.298;2022-12-29T07:45:26;99635.16;;;8.31;67.23
43621;BME280;29213;50.770;7.298;2022-12-29T07:47:52;99663.94;;;8.51;67.27
43621;BME280;29213;50.770;7.298;2022-12-29T07:50:17;99744.69;;;8.96;66.78
43621;BME280;29213;50.770;7.298;2022-12-29T07:52:43;99764.72;;;9.07;66.64
43621;BME280;29213;50.770;7.298;2022-12-29T07:55:10;99731.25;;;8.98;66.72
43621;BME280;29213;50.770;7.298;2022-12-29T07:57:35;99692.38;;;8.65;66.74
43621;BME280;29213;50.770;7.298;2022-12-29T08:00:01;99757.63;;;9.00;66.64
43621;BME280;29213;50.770;7.298;2022-12-29T08:02:28;99749.75;;;8.75;66.44
43621;BME280;29213;50.770;7.298;2022-12-29T08:04:54;99778.94;;;8.83;66.78
43621;BME280;29213;50.770;7.298;2022-12-29T08:07:20;99714.25;;;8.36;66.41
43621;BME280;29213;50.770;7.298;2022-12-29T08:09:46;99748.69;;;8.52;65.37
43621;BME280;29213;50.770;7.298;2022-12-29T08:12:11;99766.78;;;8.49;66.01
43621;BME280;29213;50.770;7.298;2022-12-29T08:14:36;99739.28;;;8.33;65.58
43621;BME280;29213;50.770;7.298;2022-12-29T08:17:02;99803.84;;;8.74;64.90
43621;BME280;29213;50.770;7.298;2022-12-29T08:19:27;99798.69;;;8.80;65.28
43621;BME280;29213;50.770;7.298;2022-12-29T08:21:53;99800.00;;;8.85;63.93
43621;BME280;29213;50.770;7.298;2022-12-29T08:24:18;99750.88;;;8.40;64.06
43621;BME280;29213;50.770;7.298;2022-12-29T08:26:44;99777.69;;;8.62;64.17
43621;BME280;29213;50.770;7.298;2022-12-29T08:29:09;99784.00;;;8.53;64.05
43621;BME280;29213;50.770;7.298;2022-12-29T08:31:34;99780.53;;;8.52;63.70
43621;BME280;29213;50.770;7.298;2022-12-29T08:34:00;99811.66;;;8.67;63.35
43621;BME280;29213;50.770;7.298;2022-12-29T08:36:26;99723.25;;;8.18;63.10
43621;BME280;29213;50.770;7.298;2022-12-29T08:38:52;99809.13;;;8.82;62.58
43621;BME280;29213;50.770;7.298;2022-12-29T08:41:23;99809.44;;;8.87;63.24
43621;BME280;29213;50.770;7.298;2022-12-29T08:43:54;99813.59;;;8.90;62.57
43621;BME280;29213;50.770;7.298;2022-12-29T08:46:27;99817.91;;;8.91;62.98
43621;BME280;29213;50.770;7.298;2022-12-29T08:48:54;99832.84;;;8.92;61.40
43621;BME280;29213;50.770;7.298;2022-12-29T08:51:29;99824.88;;;8.92;62.86
43621;BME280;29213;50.770;7.298;2022-12-29T08:53:55;99760.13;;;8.53;62.38
43621;BME280;29213;50.770;7.298;2022-12-29T08:56:20;99827.50;;;9.00;61.89
43621;BME280;29213;50.770;7.298;2022-12-29T08:58:46;99798.06;;;8.70;61.38
43621;BME280;29213;50.770;7.298;2022-12-29T09:01:11;99799.94;;;8.61;61.85
43621;BME280;29213;50.770;7.298;2022-12-29T09:03:37;99825.38;;;8.87;61.82
43621;BME280;29213;50.770;7.298;2022-12-29T09:06:03;99828.06;;;8.79;61.26
43621;BME280;29213;50.770;7.298;2022-12-29T09:08:29;99832.75;;;8.77;60.50
43621;BME280;29213;50.770;7.298;2022-12-29T09:11:18;99844.97;;;8.86;61.26
43621;BME280;29213;50.770;7.298;2022-12-29T09:13:46;99848.75;;;9.00;61.58
43621;BME280;29213;50.770;7.298;2022-12-29T09:16:14;99852.72;;;9.04;60.33
43621;BME280;29213;50.770;7.298;2022-12-29T09:18:40;99857.69;;;9.07;60.47
43621;BME280;29213;50.770;7.298;2022-12-29T09:21:10;99866.16;;;9.11;60.31
43621;BME280;29213;50.770;7.298;2022-12-29T09:23:36;99861.53;;;8.96;58.99
43621;BME280;29213;50.770;7.298;2022-12-29T09:26:08;99879.16;;;8.89;59.94
43621;BME280;29213;50.770;7.298;2022-12-29T09:28:46;99874.34;;;8.93;60.08
43621;BME280;29213;50.770;7.298;2022-12-29T09:31:13;99869.19;;;8.91;60.00
43621;BME280;29213;50.770;7.298;2022-12-29T09:33:39;99876.16;;;8.92;59.80
43621;BME280;29213;50.770;7.298;2022-12-29T09:36:08;99879.31;;;8.88;59.73
43621;BME280;29213;50.770;7.298;2022-12-29T09:38:34;99881.34;;;8.86;59.49
43621;BME280;29213;50.770;7.298;2022-12-29T09:41:21;99888.25;;;8.95;60.29
43621;BME280;29213;50.770;7.298;2022-12-29T09:46:32;99888.78;;;8.90;59.15
43621;BME280;29213;50.770;7.298;2022-12-29T09:49:29;99889.78;;;8.89;57.38
43621;BME280;29213;50.770;7.298;2022-12-29T09:52:06;99900.22;;;8.99;58.94
43621;BME280;29213;50.770;7.298;2022-12-29T09:55:02;99891.72;;;9.04;59.07
43621;BME280;29213;50.770;7.298;2022-12-29T09:57:40;99899.53;;;9.05;57.46
43621;BME280;29213;50.770;7.298;2022-12-29T10:00:14;99906.97;;;9.10;58.76
43621;BME280;29213;50.770;7.298;2022-12-29T10:03:17;99899.84;;;9.10;57.44
43621;BME280;29213;50.770;7.298;2022-12-29T10:06:11;99897.38;;;9.01;57.32
43621;BME280;29213;50.770;7.298;2022-12-29T10:08:44;99906.53;;;8.98;56.51
43621;BME280;29213;50.770;7.298;2022-12-29T10:11:29;99904.19;;;8.95;55.63
43621;BME280;29213;50.770;7.298;2022-12-29T10:22:42;99911.00;;;9.06;55.28
43621;BME280;29213;50.770;7.298;2022-12-29T10:25:22;99906.81;;;9.12;54.11
43621;BME280;29213;50.770;7.298;2022-12-29T10:27:57;99905.63;;;9.14;55.07
43621;BME280;29213;50.770;7.298;2022-12-29T10:30:32;99909.44;;;9.20;55.09
43621;BME280;29213;50.770;7.298;2022-12-29T10:33:05;99903.97;;;9.13;54.97
43621;BME280;29213;50.770;7.298;2022-12-29T10:35:36;99904.16;;;9.12;55.54
43621;BME280;29213;50.770;7.298;2022-12-29T10:38:34;99901.66;;;9.18;55.17
43621;BME280;29213;50.770;7.298;2022-12-29T10:41:28;99898.66;;;9.13;55.27
43621;BME280;29213;50.770;7.298;2022-12-29T10:44:09;99894.69;;;9.17;55.33
43621;BME280;29213;50.770;7.298;2022-12-29T10:46:54;99899.63;;;9.20;55.40
43621;BME280;29213;50.770;7.298;2022-12-29T10:49:30;99906.41;;;9.31;56.15
43621;BME280;29213;50.770;7.298;2022-12-29T10:52:00;99897.66;;;9.22;54.91
43621;BME280;29213;50.770;7.298;2022-12-29T10:54:33;99906.63;;;9.21;54.55
43621;BME280;29213;50.770;7.298;2022-12-29T10:57:34;99903.94;;;9.30;54.79
43621;BME280;29213;50.770;7.298;2022-12-29T11:00:04;99757.50;;;8.45;55.49
43621;BME280;29213;50.770;7.298;2022-12-29T11:08:09;99905.16;;;9.19;53.58
43621;BME280;29213;50.770;7.298;2022-12-29T11:10:40;99905.25;;;9.26;54.30
43621;BME280;29213;50.770;7.298;2022-12-29T11:13:28;99914.59;;;9.21;53.40
43621;BME280;29213;50.770;7.298;2022-12-29T11:15:54;99912.13;;;9.12;52.66
43621;BME280;29213;50.770;7.298;2022-12-29T11:18:32;99864.28;;;8.72;52.28
43621;BME280;29213;50.770;7.298;2022-12-29T11:21:02;99911.16;;;8.96;52.48
43621;BME280;29213;50.770;7.298;2022-12-29T11:23:44;99912.31;;;9.02;52.36
43621;BME280;29213;50.770;7.298;2022-12-29T11:26:21;99920.25;;;9.18;52.65
43621;BME280;29213;50.770;7.298;2022-12-29T11:31:31;99930.19;;;9.25;51.41
43621;BME280;29213;50.770;7.298;2022-12-29T11:34:37;99928.69;;;9.30;51.75
43621;BME280;29213;50.770;7.298;2022-12-29T11:37:05;99928.72;;;9.14;51.53
43621;BME280;29213;50.770;7.298;2022-12-29T11:42:21;99930.03;;;9.26;51.39
43621;BME280;29213;50.770;7.298;2022-12-29T11:44:52;99930.03;;;9.26;50.97
43621;BME280;29213;50.770;7.298;2022-12-29T11:47:30;99930.16;;;9.33;51.70
43621;BME280;29213;50.770;7.298;2022-12-29T11:50:17;99934.25;;;9.44;52.18
43621;BME280;29213;50.770;7.298;2022-12-29T11:52:56;99939.72;;;9.59;52.10
43621;BME280;29213;50.770;7.298;2022-12-29T11:55:28;99942.03;;;9.62;51.40
43621;BME280;29213;50.770;7.298;2022-12-29T11:57:56;99935.06;;;9.61;51.26
43621;BME280;29213;50.770;7.298;2022-12-29T12:00:24;99939.94;;;9.49;51.73
43621;BME280;29213;50.770;7.298;2022-12-29T12:03:15;99945.22;;;9.41;50.37
43621;BME280;29213;50.770;7.298;2022-12-29T12:05:57;99950.72;;;9.56;51.78
43621;BME280;29213;50.770;7.298;2022-12-29T12:08:36;99945.88;;;9.59;51.83
43621;BME280;29213;50.770;7.298;2022-12-29T12:11:08;99953.50;;;9.46;50.07
43621;BME280;29213;50.770;7.298;2022-12-29T12:13:44;99954.00;;;9.58;50.99
43621;BME280;29213;50.770;7.298;2022-12-29T12:16:25;99950.34;;;9.59;51.23
43621;BME280;29213;50.770;7.298;2022-12-29T12:21:44;99962.50;;;9.53;49.93
43621;BME280;29213;50.770;7.298;2022-12-29T12:27:23;99958.22;;;9.35;50.91
43621;BME280;29213;50.770;7.298;2022-12-29T12:30:22;99961.19;;;9.41;50.75
43621;BME280;29213;50.770;7.298;2022-12-29T12:33:05;99957.34;;;9.43;50.80
43621;BME280;29213;50.770;7.298;2022-12-29T12:35:49;99972.00;;;9.39;50.40
43621;BME280;29213;50.770;7.298;2022-12-29T12:38:45;99971.19;;;9.47;50.93
43621;BME280;29213;50.770;7.298;2022-12-29T12:43:54;99921.25;;;9.09;50.61
43621;BME280;29213;50.770;7.298;2022-12-29T12:51:50;99994.75;;;9.50;51.13
43621;BME280;29213;50.770;7.298;2022-12-29T13:02:17;99984.00;;;9.18;50.10
43621;BME280;29213;50.770;7.298;2022-12-29T13:08:03;99789.03;;;7.98;49.83
43621;BME280;29213;50.770;7.298;2022-12-29T13:10:46;99950.88;;;8.89;50.00
43621;BME280;29213;50.770;7.298;2022-12-29T13:13:40;99974.91;;;9.04;51.28
43621;BME280;29213;50.770;7.298;2022-12-29T13:16:31;99971.06;;;9.07;50.52
43621;BME280;29213;50.770;7.298;2022-12-29T13:21:39;99982.31;;;9.34;50.98
43621;BME280;29213;50.770;7.298;2022-12-29T13:26:50;99952.19;;;8.85;50.48
43621;BME280;29213;50.770;7.298;2022-12-29T13:29:45;99967.25;;;9.01;50.86
43621;BME280;29213;50.770;7.298;2022-12-29T13:32:44;99965.47;;;8.93;51.61
43621;BME280;29213;50.770;7.298;2022-12-29T13:38:18;99956.66;;;8.85;52.29
43621;BME280;29213;50.770;7.298;2022-12-29T13:40:50;99974.09;;;8.95;51.43
43621;BME280;29213;50.770;7.298;2022-12-29T13:43:19;99909.75;;;8.52;51.39
43621;BME280;29213;50.770;7.298;2022-12-29T13:45:58;99913.91;;;8.46;51.21
43621;BME280;29213;50.770;7.298;2022-12-29T13:48:36;99959.00;;;8.88;51.18
43621;BME280;29213;50.770;7.298;2022-12-29T13:51:02;99975.41;;;9.00;51.24
43621;BME280;29213;50.770;7.298;2022-12-29T13:53:55;99963.09;;;8.99;50.66
43621;BME280;29213;50.770;7.298;2022-12-29T13:56:42;99974.06;;;9.04;50.51
43621;BME280;29213;50.770;7.298;2022-12-29T13:59:21;99992.31;;;8.99;50.58
43621;BME280;29213;50.770;7.298;2022-12-29T14:01:55;99998.31;;;8.92;50.51
43621;BME280;29213;50.770;7.298;2022-12-29T14:04:26;100003.94;;;8.98;50.86
43621;BME280;29213;50.770;7.298;2022-12-29T14:07:13;99982.03;;;8.87;50.50
43621;BME280;29213;50.770;7.298;2022-12-29T14:09:48;99961.81;;;8.78;50.95
43621;BME280;29213;50.770;7.298;2022-12-29T14:12:22;99918.34;;;8.54;50.17
43621;BME280;29213;50.770;7.298;2022-12-29T14:14:53;99888.03;;;8.32;50.56
43621;BME280;29213;50.770;7.298;2022-12-29T14:17:20;99959.19;;;8.78;50.92
43621;BME280;29213;50.770;7.298;2022-12-29T14:19:47;99984.53;;;9.05;50.46
43621;BME280;29213;50.770;7.298;2022-12-29T14:22:23;99971.25;;;9.05;50.81
43621;BME280;29213;50.770;7.298;2022-12-29T14:24:49;99999.59;;;9.30;50.78
43621;BME280;29213;50.770;7.298;2022-12-29T14:34:50;99888.88;;;8.49;50.87
43621;BME280;29213;50.770;7.298;2022-12-29T14:37:25;100007.41;;;9.31;50.63
43621;BME280;29213;50.770;7.298;2022-12-29T14:40:17;99993.78;;;9.26;50.78
43621;BME280;29213;50.770;7.298;2022-12-29T14:42:44;99907.44;;;8.49;50.85
43621;BME280;29213;50.770;7.298;2022-12-29T14:47:59;100008.25;;;9.15;49.77
43621;BME280;29213;50.770;7.298;2022-12-29T14:50:38;100013.88;;;9.20;50.03
43621;BME280;29213;50.770;7.298;2022-12-29T14:53:06;100009.72;;;9.26;49.87
43621;BME280;29213;50.770;7.298;2022-12-29T14:55:55;99873.59;;;8.51;49.64
43621;BME280;29213;50.770;7.298;2022-12-29T14:58:28;99932.63;;;8.78;50.00
43621;BME280;29213;50.770;7.298;2022-12-29T15:00:54;100024.16;;;9.32;49.70
43621;BME280;29213;50.770;7.298;2022-12-29T15:06:19;100008.25;;;8.99;49.42
43621;BME280;29213;50.770;7.298;2022-12-29T15:08:55;100041.28;;;9.13;48.79
43621;BME280;29213;50.770;7.298;2022-12-29T15:11:41;100046.13;;;9.17;49.66
43621;BME280;29213;50.770;7.298;2022-12-29T15:14:51;100043.78;;;9.22;49.96
43621;BME280;29213;50.770;7.298;2022-12-29T15:17:26;99939.28;;;8.57;48.81